sensor_id;sensor_type;location;lat;lon;timestamp;P1;durP1;ratioP1;P2;durP2;ratioP2
1591;SDS011;789;51.612;7.510;2023-04-16T00:01:20;33.47;;;21.37;;
1591;SDS011;789;51.612;7.510;2023-04-16T00:03:50;39.33;;;22.97;;
1591;SDS011;789;51.612;7.510;2023-04-16T00:06:17;33.00;;;22.67;;
1591;SDS011;789;51.612;7.510;2023-04-16T00:08:44;32.47;;;22.87;;
1591;SDS011;789;51.612;7.510;2023-04-16T00:11:11;30.73;;;22.07;;
1591;SDS011;789;51.612;7.510;2023-04-16T00:13:39;33.90;;;23.40;;
1591;SDS011;789;51.612;7.510;2023-04-16T00:16:06;36.63;;;23.67;;
1591;SDS011;789;51.612;7.510;2023-04-16T00:18:33;48.83;;;24.63;;
1591;SDS011;789;51.612;7.510;2023-04-16T00:21:00;35.80;;;23.40;;
1591;SDS011;789;51.612;7.510;2023-04-16T00:23:27;34.87;;;22.73;;
1591;SDS011;789;51.612;7.510;2023-04-16T00:25:53;34.17;;;22.60;;
1591;SDS011;789;51.612;7.510;2023-04-16T00:28:23;38.67;;;24.40;;
1591;SDS011;789;51.612;7.510;2023-04-16T00:30:52;37.60;;;23.13;;
1591;SDS011;789;51.612;7.510;2023-04-16T00:33:19;35.70;;;23.30;;
1591;SDS011;789;51.612;7.510;2023-04-16T00:35:46;35.90;;;23.70;;
1591;SDS011;789;51.612;7.510;2023-04-16T00:38:13;39.30;;;24.37;;
1591;SDS011;789;51.612;7.510;2023-04-16T00:40:40;38.63;;;24.00;;
1591;SDS011;789;51.612;7.510;2023-04-16T00:43:07;42.50;;;24.47;;
1591;SDS011;789;51.612;7.510;2023-04-16T00:45:34;39.03;;;25.13;;
1591;SDS011;789;51.612;7.510;2023-04-16T00:48:03;42.27;;;25.53;;
1591;SDS011;789;51.612;7.510;2023-04-16T00:50:30;37.53;;;23.97;;
1591;SDS011;789;51.612;7.510;2023-04-16T00:52:58;40.53;;;24.80;;
1591;SDS011;789;51.612;7.510;2023-04-16T00:55:26;45.17;;;25.47;;
1591;SDS011;789;51.612;7.510;2023-04-16T00:57:53;42.77;;;24.63;;
1591;SDS011;789;51.612;7.510;2023-04-16T01:00:20;39.33;;;25.40;;
1591;SDS011;789;51.612;7.510;2023-04-16T01:02:47;41.13;;;26.27;;
1591;SDS011;789;51.612;7.510;2023-04-16T01:05:15;41.43;;;26.57;;
1591;SDS011;789;51.612;7.510;2023-04-16T01:07:42;42.20;;;26.87;;
1591;SDS011;789;51.612;7.510;2023-04-16T01:10:09;40.70;;;25.57;;
1591;SDS011;789;51.612;7.510;2023-04-16T01:12:36;36.27;;;25.33;;
1591;SDS011;789;51.612;7.510;2023-04-16T01:15:03;44.73;;;27.83;;
1591;SDS011;789;51.612;7.510;2023-04-16T01:17:30;39.30;;;26.57;;
1591;SDS011;789;51.612;7.510;2023-04-16T01:19:57;45.87;;;25.57;;
1591;SDS011;789;51.612;7.510;2023-04-16T01:22:26;45.37;;;25.57;;
1591;SDS011;789;51.612;7.510;2023-04-16T01:24:54;41.80;;;26.33;;
1591;SDS011;789;51.612;7.510;2023-04-16T01:27:20;41.97;;;24.80;;
1591;SDS011;789;51.612;7.510;2023-04-16T01:29:47;42.10;;;24.90;;
1591;SDS011;789;51.612;7.510;2023-04-16T01:32:14;44.80;;;26.80;;
1591;SDS011;789;51.612;7.510;2023-04-16T01:34:41;42.03;;;25.90;;
1591;SDS011;789;51.612;7.510;2023-04-16T01:37:08;41.57;;;26.20;;
1591;SDS011;789;51.612;7.510;2023-04-16T01:39:36;36.33;;;24.87;;
1591;SDS011;789;51.612;7.510;2023-04-16T01:42:02;46.17;;;27.57;;
1591;SDS011;789;51.612;7.510;2023-04-16T01:44:29;40.90;;;25.00;;
1591;SDS011;789;51.612;7.510;2023-04-16T01:46:56;45.90;;;26.20;;
1591;SDS011;789;51.612;7.510;2023-04-16T01:49:23;39.33;;;25.13;;
1591;SDS011;789;51.612;7.510;2023-04-16T01:51:50;40.53;;;26.40;;
1591;SDS011;789;51.612;7.510;2023-04-16T01:54:16;44.47;;;27.30;;
1591;SDS011;789;51.612;7.510;2023-04-16T01:56:45;38.83;;;26.00;;
1591;SDS011;789;51.612;7.510;2023-04-16T01:59:11;44.53;;;26.03;;
1591;SDS011;789;51.612;7.510;2023-04-16T02:01:38;45.00;;;28.80;;
1591;SDS011;789;51.612;7.510;2023-04-16T02:04:06;42.63;;;26.50;;
1591;SDS011;789;51.612;7.510;2023-04-16T02:06:34;45.57;;;27.90;;
1591;SDS011;789;51.612;7.510;2023-04-16T02:09:01;47.90;;;26.53;;
1591;SDS011;789;51.612;7.510;2023-04-16T02:11:28;48.00;;;27.90;;
1591;SDS011;789;51.612;7.510;2023-04-16T02:13:56;43.07;;;27.50;;
1591;SDS011;789;51.612;7.510;2023-04-16T02:16:23;43.97;;;27.43;;
1591;SDS011;789;51.612;7.510;2023-04-16T02:18:50;44.27;;;27.17;;
1591;SDS011;789;51.612;7.510;2023-04-16T02:21:17;50.73;;;29.83;;
1591;SDS011;789;51.612;7.510;2023-04-16T02:23:44;51.30;;;29.80;;
1591;SDS011;789;51.612;7.510;2023-04-16T02:26:15;52.87;;;30.20;;
1591;SDS011;789;51.612;7.510;2023-04-16T02:28:42;41.47;;;28.20;;
1591;SDS011;789;51.612;7.510;2023-04-16T02:31:10;42.33;;;29.23;;
1591;SDS011;789;51.612;7.510;2023-04-16T02:33:37;48.60;;;30.97;;
1591;SDS011;789;51.612;7.510;2023-04-16T02:36:04;43.77;;;29.13;;
1591;SDS011;789;51.612;7.510;2023-04-16T02:38:32;48.40;;;30.00;;
1591;SDS011;789;51.612;7.510;2023-04-16T02:41:01;49.73;;;30.80;;
1591;SDS011;789;51.612;7.510;2023-04-16T02:43:28;42.07;;;28.67;;
1591;SDS011;789;51.612;7.510;2023-04-16T02:45:55;53.63;;;30.20;;
1591;SDS011;789;51.612;7.510;2023-04-16T02:48:24;55.60;;;29.90;;
1591;SDS011;789;51.612;7.510;2023-04-16T02:50:51;45.60;;;28.13;;
1591;SDS011;789;51.612;7.510;2023-04-16T02:53:18;46.53;;;29.10;;
1591;SDS011;789;51.612;7.510;2023-04-16T02:55:48;51.50;;;30.23;;
1591;SDS011;789;51.612;7.510;2023-04-16T02:58:16;48.50;;;30.00;;
1591;SDS011;789;51.612;7.510;2023-04-16T03:00:43;48.80;;;30.37;;
1591;SDS011;789;51.612;7.510;2023-04-16T03:03:10;50.70;;;31.70;;
1591;SDS011;789;51.612;7.510;2023-04-16T03:05:38;44.83;;;29.20;;
1591;SDS011;789;51.612;7.510;2023-04-16T03:08:05;52.80;;;29.90;;
1591;SDS011;789;51.612;7.510;2023-04-16T03:10:33;47.53;;;29.27;;
1591;SDS011;789;51.612;7.510;2023-04-16T03:13:00;48.07;;;29.60;;
1591;SDS011;789;51.612;7.510;2023-04-16T03:15:27;44.87;;;29.30;;
1591;SDS011;789;51.612;7.510;2023-04-16T03:17:54;44.00;;;30.07;;
1591;SDS011;789;51.612;7.510;2023-04-16T03:20:21;44.17;;;29.80;;
1591;SDS011;789;51.612;7.510;2023-04-16T03:22:50;45.57;;;29.10;;
1591;SDS011;789;51.612;7.510;2023-04-16T03:25:17;47.13;;;30.50;;
1591;SDS011;789;51.612;7.510;2023-04-16T03:27:44;46.63;;;28.27;;
1591;SDS011;789;51.612;7.510;2023-04-16T03:30:11;47.80;;;30.63;;
1591;SDS011;789;51.612;7.510;2023-04-16T03:32:39;49.60;;;30.10;;
1591;SDS011;789;51.612;7.510;2023-04-16T03:35:07;52.60;;;30.63;;
1591;SDS011;789;51.612;7.510;2023-04-16T03:37:34;48.00;;;30.83;;
1591;SDS011;789;51.612;7.510;2023-04-16T03:40:02;47.33;;;30.93;;
1591;SDS011;789;51.612;7.510;2023-04-16T03:42:31;51.33;;;31.67;;
1591;SDS011;789;51.612;7.510;2023-04-16T03:44:58;57.33;;;31.30;;
1591;SDS011;789;51.612;7.510;2023-04-16T03:47:25;62.33;;;31.07;;
1591;SDS011;789;51.612;7.510;2023-04-16T03:49:51;50.97;;;31.20;;
1591;SDS011;789;51.612;7.510;2023-04-16T03:52:18;49.97;;;30.63;;
1591;SDS011;789;51.612;7.510;2023-04-16T03:54:45;48.10;;;30.23;;
1591;SDS011;789;51.612;7.510;2023-04-16T03:57:13;57.37;;;33.20;;
1591;SDS011;789;51.612;7.510;2023-04-16T03:59:40;52.60;;;32.90;;
1591;SDS011;789;51.612;7.510;2023-04-16T04:02:07;52.20;;;32.50;;
1591;SDS011;789;51.612;7.510;2023-04-16T04:04:33;53.57;;;32.33;;
1591;SDS011;789;51.612;7.510;2023-04-16T04:07:00;56.10;;;32.40;;
1591;SDS011;789;51.612;7.510;2023-04-16T04:09:27;54.60;;;33.67;;
1591;SDS011;789;51.612;7.510;2023-04-16T04:11:54;51.83;;;32.97;;
1591;SDS011;789;51.612;7.510;2023-04-16T04:14:22;54.10;;;32.83;;
1591;SDS011;789;51.612;7.510;2023-04-16T04:16:49;59.20;;;33.90;;
1591;SDS011;789;51.612;7.510;2023-04-16T04:19:16;54.50;;;32.80;;
1591;SDS011;789;51.612;7.510;2023-04-16T04:21:43;59.27;;;34.30;;
1591;SDS011;789;51.612;7.510;2023-04-16T04:24:09;61.10;;;36.03;;
1591;SDS011;789;51.612;7.510;2023-04-16T04:26:36;61.73;;;34.57;;
1591;SDS011;789;51.612;7.510;2023-04-16T04:29:03;56.47;;;32.77;;
1591;SDS011;789;51.612;7.510;2023-04-16T04:31:31;61.73;;;34.40;;
1591;SDS011;789;51.612;7.510;2023-04-16T04:33:58;62.37;;;35.17;;
1591;SDS011;789;51.612;7.510;2023-04-16T04:36:25;54.77;;;34.57;;
1591;SDS011;789;51.612;7.510;2023-04-16T04:38:52;64.37;;;32.80;;
1591;SDS011;789;51.612;7.510;2023-04-16T04:41:19;56.03;;;33.77;;
1591;SDS011;789;51.612;7.510;2023-04-16T04:43:46;61.93;;;34.07;;
1591;SDS011;789;51.612;7.510;2023-04-16T04:46:13;56.43;;;34.30;;
1591;SDS011;789;51.612;7.510;2023-04-16T04:48:41;55.53;;;33.90;;
1591;SDS011;789;51.612;7.510;2023-04-16T04:51:07;64.10;;;35.40;;
1591;SDS011;789;51.612;7.510;2023-04-16T04:53:34;55.80;;;32.60;;
1591;SDS011;789;51.612;7.510;2023-04-16T04:56:01;58.03;;;34.67;;
1591;SDS011;789;51.612;7.510;2023-04-16T04:58:28;56.60;;;33.63;;
1591;SDS011;789;51.612;7.510;2023-04-16T05:00:54;51.57;;;34.17;;
1591;SDS011;789;51.612;7.510;2023-04-16T05:03:21;53.50;;;34.37;;
1591;SDS011;789;51.612;7.510;2023-04-16T05:05:49;56.33;;;34.97;;
1591;SDS011;789;51.612;7.510;2023-04-16T05:08:16;62.73;;;35.80;;
1591;SDS011;789;51.612;7.510;2023-04-16T05:10:43;54.10;;;34.33;;
1591;SDS011;789;51.612;7.510;2023-04-16T05:13:09;58.57;;;36.30;;
1591;SDS011;789;51.612;7.510;2023-04-16T05:15:36;60.47;;;35.23;;
1591;SDS011;789;51.612;7.510;2023-04-16T05:18:03;51.90;;;33.60;;
1591;SDS011;789;51.612;7.510;2023-04-16T05:20:30;53.17;;;34.00;;
1591;SDS011;789;51.612;7.510;2023-04-16T05:22:58;56.10;;;35.60;;
1591;SDS011;789;51.612;7.510;2023-04-16T05:25:25;58.63;;;35.50;;
1591;SDS011;789;51.612;7.510;2023-04-16T05:27:52;52.13;;;36.47;;
1591;SDS011;789;51.612;7.510;2023-04-16T05:30:18;55.07;;;34.90;;
1591;SDS011;789;51.612;7.510;2023-04-16T05:32:45;51.80;;;34.80;;
1591;SDS011;789;51.612;7.510;2023-04-16T05:35:12;54.33;;;35.67;;
1591;SDS011;789;51.612;7.510;2023-04-16T05:37:39;56.80;;;36.60;;
1591;SDS011;789;51.612;7.510;2023-04-16T05:40:12;61.37;;;35.40;;
1591;SDS011;789;51.612;7.510;2023-04-16T05:42:39;50.77;;;34.67;;
1591;SDS011;789;51.612;7.510;2023-04-16T05:45:06;53.30;;;34.60;;
1591;SDS011;789;51.612;7.510;2023-04-16T05:47:34;49.53;;;33.80;;
1591;SDS011;789;51.612;7.510;2023-04-16T05:50:01;49.03;;;35.17;;
1591;SDS011;789;51.612;7.510;2023-04-16T05:52:28;56.20;;;35.13;;
1591;SDS011;789;51.612;7.510;2023-04-16T05:54:54;53.97;;;36.57;;
1591;SDS011;789;51.612;7.510;2023-04-16T05:57:23;54.00;;;36.50;;
1591;SDS011;789;51.612;7.510;2023-04-16T05:59:50;49.33;;;34.57;;
1591;SDS011;789;51.612;7.510;2023-04-16T06:02:17;48.20;;;35.00;;
1591;SDS011;789;51.612;7.510;2023-04-16T06:04:44;48.63;;;34.80;;
1591;SDS011;789;51.612;7.510;2023-04-16T06:07:11;47.80;;;34.43;;
1591;SDS011;789;51.612;7.510;2023-04-16T06:09:38;54.73;;;36.60;;
1591;SDS011;789;51.612;7.510;2023-04-16T06:12:05;47.73;;;35.03;;
1591;SDS011;789;51.612;7.510;2023-04-16T06:14:33;51.00;;;36.07;;
1591;SDS011;789;51.612;7.510;2023-04-16T06:16:59;41.23;;;33.37;;
1591;SDS011;789;51.612;7.510;2023-04-16T06:19:26;45.80;;;33.23;;
1591;SDS011;789;51.612;7.510;2023-04-16T06:21:53;45.40;;;34.90;;
1591;SDS011;789;51.612;7.510;2023-04-16T06:24:20;44.33;;;33.73;;
1591;SDS011;789;51.612;7.510;2023-04-16T06:26:47;46.07;;;33.27;;
1591;SDS011;789;51.612;7.510;2023-04-16T06:29:13;39.27;;;31.83;;
1591;SDS011;789;51.612;7.510;2023-04-16T06:31:41;42.40;;;31.67;;
1591;SDS011;789;51.612;7.510;2023-04-16T06:34:08;44.77;;;32.83;;
1591;SDS011;789;51.612;7.510;2023-04-16T06:36:35;46.50;;;33.50;;
1591;SDS011;789;51.612;7.510;2023-04-16T06:39:02;41.30;;;32.47;;
1591;SDS011;789;51.612;7.510;2023-04-16T06:41:29;46.27;;;33.80;;
1591;SDS011;789;51.612;7.510;2023-04-16T06:43:56;44.13;;;33.40;;
1591;SDS011;789;51.612;7.510;2023-04-16T06:46:23;45.23;;;34.53;;
1591;SDS011;789;51.612;7.510;2023-04-16T06:48:54;45.60;;;33.97;;
1591;SDS011;789;51.612;7.510;2023-04-16T06:51:21;43.30;;;33.57;;
1591;SDS011;789;51.612;7.510;2023-04-16T06:53:47;45.50;;;33.73;;
1591;SDS011;789;51.612;7.510;2023-04-16T06:56:14;43.83;;;32.90;;
1591;SDS011;789;51.612;7.510;2023-04-16T06:58:41;46.23;;;33.80;;
1591;SDS011;789;51.612;7.510;2023-04-16T07:01:07;46.80;;;34.23;;
1591;SDS011;789;51.612;7.510;2023-04-16T07:03:34;43.53;;;33.90;;
1591;SDS011;789;51.612;7.510;2023-04-16T07:06:03;43.37;;;33.20;;
1591;SDS011;789;51.612;7.510;2023-04-16T07:08:30;41.13;;;33.70;;
1591;SDS011;789;51.612;7.510;2023-04-16T07:10:56;43.10;;;34.33;;
1591;SDS011;789;51.612;7.510;2023-04-16T07:13:23;41.33;;;34.07;;
1591;SDS011;789;51.612;7.510;2023-04-16T07:15:50;48.97;;;34.67;;
1591;SDS011;789;51.612;7.510;2023-04-16T07:18:17;44.60;;;33.80;;
1591;SDS011;789;51.612;7.510;2023-04-16T07:20:43;46.90;;;35.47;;
1591;SDS011;789;51.612;7.510;2023-04-16T07:23:12;41.60;;;33.40;;
1591;SDS011;789;51.612;7.510;2023-04-16T07:25:38;44.90;;;34.90;;
1591;SDS011;789;51.612;7.510;2023-04-16T07:28:06;41.53;;;33.20;;
1591;SDS011;789;51.612;7.510;2023-04-16T07:30:32;38.00;;;30.80;;
1591;SDS011;789;51.612;7.510;2023-04-16T07:32:59;42.67;;;32.97;;
1591;SDS011;789;51.612;7.510;2023-04-16T07:35:27;43.87;;;33.80;;
1591;SDS011;789;51.612;7.510;2023-04-16T07:37:54;39.40;;;32.00;;
1591;SDS011;789;51.612;7.510;2023-04-16T07:40:22;39.80;;;32.27;;
1591;SDS011;789;51.612;7.510;2023-04-16T07:42:49;40.87;;;31.37;;
1591;SDS011;789;51.612;7.510;2023-04-16T07:45:16;43.17;;;33.47;;
1591;SDS011;789;51.612;7.510;2023-04-16T07:47:43;44.97;;;33.90;;
1591;SDS011;789;51.612;7.510;2023-04-16T07:50:10;40.83;;;34.57;;
1591;SDS011;789;51.612;7.510;2023-04-16T07:52:37;41.10;;;33.23;;
1591;SDS011;789;51.612;7.510;2023-04-16T07:55:05;40.47;;;33.40;;
1591;SDS011;789;51.612;7.510;2023-04-16T07:57:34;45.37;;;32.90;;
1591;SDS011;789;51.612;7.510;2023-04-16T08:00:00;42.17;;;34.27;;
1591;SDS011;789;51.612;7.510;2023-04-16T08:02:29;40.63;;;33.87;;
1591;SDS011;789;51.612;7.510;2023-04-16T08:04:56;42.83;;;35.97;;
1591;SDS011;789;51.612;7.510;2023-04-16T08:07:23;44.93;;;34.87;;
1591;SDS011;789;51.612;7.510;2023-04-16T08:09:51;43.80;;;34.30;;
1591;SDS011;789;51.612;7.510;2023-04-16T08:12:18;44.80;;;34.50;;
1591;SDS011;789;51.612;7.510;2023-04-16T08:14:47;44.97;;;34.23;;
1591;SDS011;789;51.612;7.510;2023-04-16T08:17:14;43.73;;;35.00;;
1591;SDS011;789;51.612;7.510;2023-04-16T08:19:41;41.20;;;33.20;;
1591;SDS011;789;51.612;7.510;2023-04-16T08:22:08;40.20;;;33.90;;
1591;SDS011;789;51.612;7.510;2023-04-16T08:24:35;42.57;;;33.90;;
1591;SDS011;789;51.612;7.510;2023-04-16T08:27:02;41.80;;;32.33;;
1591;SDS011;789;51.612;7.510;2023-04-16T08:29:29;45.00;;;34.27;;
1591;SDS011;789;51.612;7.510;2023-04-16T08:31:57;42.60;;;33.87;;
1591;SDS011;789;51.612;7.510;2023-04-16T08:34:24;39.80;;;32.70;;
1591;SDS011;789;51.612;7.510;2023-04-16T08:36:51;43.90;;;34.97;;
1591;SDS011;789;51.612;7.510;2023-04-16T08:39:18;42.47;;;33.37;;
1591;SDS011;789;51.612;7.510;2023-04-16T08:41:45;41.33;;;34.20;;
1591;SDS011;789;51.612;7.510;2023-04-16T08:44:13;41.07;;;33.90;;
1591;SDS011;789;51.612;7.510;2023-04-16T08:46:46;43.37;;;32.63;;
1591;SDS011;789;51.612;7.510;2023-04-16T08:49:16;38.73;;;33.00;;
1591;SDS011;789;51.612;7.510;2023-04-16T08:51:48;38.53;;;32.20;;
1591;SDS011;789;51.612;7.510;2023-04-16T08:54:19;38.20;;;31.33;;
1591;SDS011;789;51.612;7.510;2023-04-16T08:56:53;36.73;;;30.60;;
1591;SDS011;789;51.612;7.510;2023-04-16T08:59:21;37.20;;;31.07;;
1591;SDS011;789;51.612;7.510;2023-04-16T09:01:48;34.40;;;30.10;;
1591;SDS011;789;51.612;7.510;2023-04-16T09:04:17;40.57;;;32.20;;
1591;SDS011;789;51.612;7.510;2023-04-16T09:06:46;37.30;;;31.27;;
1591;SDS011;789;51.612;7.510;2023-04-16T09:09:14;35.30;;;30.73;;
1591;SDS011;789;51.612;7.510;2023-04-16T09:11:42;34.93;;;29.83;;
1591;SDS011;789;51.612;7.510;2023-04-16T09:14:09;39.90;;;31.77;;
1591;SDS011;789;51.612;7.510;2023-04-16T09:16:37;35.70;;;29.57;;
1591;SDS011;789;51.612;7.510;2023-04-16T09:19:04;34.27;;;29.70;;
1591;SDS011;789;51.612;7.510;2023-04-16T09:21:33;35.13;;;30.47;;
1591;SDS011;789;51.612;7.510;2023-04-16T09:23:59;33.43;;;28.77;;
1591;SDS011;789;51.612;7.510;2023-04-16T09:26:27;37.43;;;30.07;;
1591;SDS011;789;51.612;7.510;2023-04-16T09:28:57;38.13;;;31.90;;
1591;SDS011;789;51.612;7.510;2023-04-16T09:31:24;34.43;;;30.40;;
1591;SDS011;789;51.612;7.510;2023-04-16T09:34:01;36.33;;;30.47;;
1591;SDS011;789;51.612;7.510;2023-04-16T09:36:29;41.90;;;31.37;;
1591;SDS011;789;51.612;7.510;2023-04-16T09:38:59;36.90;;;30.20;;
1591;SDS011;789;51.612;7.510;2023-04-16T09:41:26;34.63;;;30.60;;
1591;SDS011;789;51.612;7.510;2023-04-16T09:43:57;37.00;;;30.10;;
1591;SDS011;789;51.612;7.510;2023-04-16T09:46:28;32.97;;;29.37;;
1591;SDS011;789;51.612;7.510;2023-04-16T09:49:03;31.80;;;28.47;;
1591;SDS011;789;51.612;7.510;2023-04-16T09:51:35;34.33;;;30.63;;
1591;SDS011;789;51.612;7.510;2023-04-16T09:54:04;36.67;;;30.30;;
1591;SDS011;789;51.612;7.510;2023-04-16T09:56:31;37.17;;;31.53;;
1591;SDS011;789;51.612;7.510;2023-04-16T09:58:59;30.93;;;27.60;;
1591;SDS011;789;51.612;7.510;2023-04-16T10:01:26;37.93;;;29.03;;
1591;SDS011;789;51.612;7.510;2023-04-16T10:03:53;33.63;;;29.40;;
1591;SDS011;789;51.612;7.510;2023-04-16T10:06:21;31.20;;;27.87;;
1591;SDS011;789;51.612;7.510;2023-04-16T10:08:49;33.77;;;28.37;;
1591;SDS011;789;51.612;7.510;2023-04-16T10:11:19;34.27;;;27.20;;
1591;SDS011;789;51.612;7.510;2023-04-16T10:13:46;31.63;;;26.97;;
1591;SDS011;789;51.612;7.510;2023-04-16T10:16:13;30.20;;;26.97;;
1591;SDS011;789;51.612;7.510;2023-04-16T10:18:40;32.63;;;27.27;;
1591;SDS011;789;51.612;7.510;2023-04-16T10:21:08;30.67;;;27.57;;
1591;SDS011;789;51.612;7.510;2023-04-16T10:23:37;30.27;;;27.27;;
1591;SDS011;789;51.612;7.510;2023-04-16T10:26:04;27.90;;;24.97;;
1591;SDS011;789;51.612;7.510;2023-04-16T10:28:33;31.20;;;27.83;;
1591;SDS011;789;51.612;7.510;2023-04-16T10:31:00;30.53;;;26.73;;
1591;SDS011;789;51.612;7.510;2023-04-16T10:33:32;29.50;;;26.30;;
1591;SDS011;789;51.612;7.510;2023-04-16T10:36:07;28.07;;;25.17;;
1591;SDS011;789;51.612;7.510;2023-04-16T10:38:37;29.67;;;25.47;;
1591;SDS011;789;51.612;7.510;2023-04-16T10:41:05;31.33;;;27.40;;
1591;SDS011;789;51.612;7.510;2023-04-16T10:43:37;29.67;;;26.40;;
1591;SDS011;789;51.612;7.510;2023-04-16T10:46:18;30.17;;;26.97;;
1591;SDS011;789;51.612;7.510;2023-04-16T10:48:46;31.47;;;26.60;;
1591;SDS011;789;51.612;7.510;2023-04-16T10:51:24;29.90;;;25.67;;
1591;SDS011;789;51.612;7.510;2023-04-16T10:54:03;26.90;;;23.60;;
1591;SDS011;789;51.612;7.510;2023-04-16T10:56:50;28.60;;;25.67;;
1591;SDS011;789;51.612;7.510;2023-04-16T10:59:20;27.67;;;24.47;;
1591;SDS011;789;51.612;7.510;2023-04-16T11:01:49;27.50;;;24.60;;
1591;SDS011;789;51.612;7.510;2023-04-16T11:04:26;27.40;;;24.53;;
1591;SDS011;789;51.612;7.510;2023-04-16T11:07:01;27.60;;;24.90;;
1591;SDS011;789;51.612;7.510;2023-04-16T11:09:42;27.67;;;24.87;;
1591;SDS011;789;51.612;7.510;2023-04-16T11:12:23;25.93;;;23.33;;
1591;SDS011;789;51.612;7.510;2023-04-16T11:14:58;26.70;;;24.23;;
1591;SDS011;789;51.612;7.510;2023-04-16T11:17:27;26.73;;;24.10;;
1591;SDS011;789;51.612;7.510;2023-04-16T11:19:56;26.93;;;24.27;;
1591;SDS011;789;51.612;7.510;2023-04-16T11:22:22;26.13;;;23.40;;
1591;SDS011;789;51.612;7.510;2023-04-16T11:24:52;26.20;;;23.40;;
1591;SDS011;789;51.612;7.510;2023-04-16T11:27:21;25.50;;;22.70;;
1591;SDS011;789;51.612;7.510;2023-04-16T11:29:57;27.10;;;24.30;;
1591;SDS011;789;51.612;7.510;2023-04-16T11:32:25;31.17;;;24.43;;
1591;SDS011;789;51.612;7.510;2023-04-16T11:34:53;25.23;;;22.53;;
1591;SDS011;789;51.612;7.510;2023-04-16T11:37:20;25.47;;;22.83;;
1591;SDS011;789;51.612;7.510;2023-04-16T11:39:56;24.47;;;21.97;;
1591;SDS011;789;51.612;7.510;2023-04-16T11:42:23;24.33;;;21.83;;
1591;SDS011;789;51.612;7.510;2023-04-16T11:44:51;24.13;;;21.83;;
1591;SDS011;789;51.612;7.510;2023-04-16T11:47:20;24.47;;;21.90;;
1591;SDS011;789;51.612;7.510;2023-04-16T11:49:47;24.83;;;22.33;;
1591;SDS011;789;51.612;7.510;2023-04-16T11:52:23;24.33;;;21.73;;
1591;SDS011;789;51.612;7.510;2023-04-16T11:54:51;24.37;;;20.50;;
1591;SDS011;789;51.612;7.510;2023-04-16T11:57:22;22.63;;;20.43;;
1591;SDS011;789;51.612;7.510;2023-04-16T11:59:49;22.03;;;19.90;;
1591;SDS011;789;51.612;7.510;2023-04-16T12:02:16;22.40;;;20.20;;
1591;SDS011;789;51.612;7.510;2023-04-16T12:04:44;19.67;;;17.87;;
1591;SDS011;789;51.612;7.510;2023-04-16T12:07:12;20.07;;;17.83;;
1591;SDS011;789;51.612;7.510;2023-04-16T12:09:40;17.40;;;15.60;;
1591;SDS011;789;51.612;7.510;2023-04-16T12:14:54;18.40;;;16.60;;
1591;SDS011;789;51.612;7.510;2023-04-16T12:17:23;17.00;;;15.37;;
1591;SDS011;789;51.612;7.510;2023-04-16T12:19:58;17.43;;;15.73;;
1591;SDS011;789;51.612;7.510;2023-04-16T12:22:27;16.40;;;14.80;;
1591;SDS011;789;51.612;7.510;2023-04-16T12:24:59;16.77;;;15.17;;
1591;SDS011;789;51.612;7.510;2023-04-16T12:27:44;20.90;;;18.80;;
1591;SDS011;789;51.612;7.510;2023-04-16T12:30:12;24.00;;;20.60;;
1591;SDS011;789;51.612;7.510;2023-04-16T12:32:40;24.10;;;20.13;;
1591;SDS011;789;51.612;7.510;2023-04-16T12:35:09;21.37;;;19.27;;
1591;SDS011;789;51.612;7.510;2023-04-16T12:37:36;21.93;;;19.60;;
1591;SDS011;789;51.612;7.510;2023-04-16T12:40:03;23.07;;;20.80;;
1591;SDS011;789;51.612;7.510;2023-04-16T12:42:31;22.97;;;20.83;;
1591;SDS011;789;51.612;7.510;2023-04-16T12:45:01;23.27;;;19.93;;
1591;SDS011;789;51.612;7.510;2023-04-16T12:47:29;23.23;;;20.93;;
1591;SDS011;789;51.612;7.510;2023-04-16T12:49:55;23.60;;;21.20;;
1591;SDS011;789;51.612;7.510;2023-04-16T12:52:24;21.60;;;19.50;;
1591;SDS011;789;51.612;7.510;2023-04-16T12:54:51;23.13;;;20.53;;
1591;SDS011;789;51.612;7.510;2023-04-16T12:57:18;22.00;;;19.70;;
1591;SDS011;789;51.612;7.510;2023-04-16T12:59:45;21.00;;;18.80;;
1591;SDS011;789;51.612;7.510;2023-04-16T13:02:12;22.07;;;19.97;;
1591;SDS011;789;51.612;7.510;2023-04-16T13:04:39;21.53;;;19.30;;
1591;SDS011;789;51.612;7.510;2023-04-16T13:07:05;21.20;;;19.17;;
1591;SDS011;789;51.612;7.510;2023-04-16T13:09:34;22.67;;;20.43;;
1591;SDS011;789;51.612;7.510;2023-04-16T13:12:01;23.13;;;20.83;;
1591;SDS011;789;51.612;7.510;2023-04-16T13:14:30;21.47;;;19.17;;
1591;SDS011;789;51.612;7.510;2023-04-16T13:16:57;22.10;;;19.97;;
1591;SDS011;789;51.612;7.510;2023-04-16T13:19:23;21.50;;;19.40;;
1591;SDS011;789;51.612;7.510;2023-04-16T13:21:50;21.57;;;19.37;;
1591;SDS011;789;51.612;7.510;2023-04-16T13:24:17;21.70;;;18.53;;
1591;SDS011;789;51.612;7.510;2023-04-16T13:26:45;26.80;;;24.17;;
1591;SDS011;789;51.612;7.510;2023-04-16T13:29:12;20.20;;;16.33;;
1591;SDS011;789;51.612;7.510;2023-04-16T13:31:39;17.50;;;15.60;;
1591;SDS011;789;51.612;7.510;2023-04-16T13:34:06;20.00;;;15.40;;
1591;SDS011;789;51.612;7.510;2023-04-16T13:36:32;17.80;;;16.00;;
1591;SDS011;789;51.612;7.510;2023-04-16T13:38:59;16.73;;;15.13;;
1591;SDS011;789;51.612;7.510;2023-04-16T13:41:28;17.03;;;15.23;;
1591;SDS011;789;51.612;7.510;2023-04-16T13:43:57;16.67;;;14.97;;
1591;SDS011;789;51.612;7.510;2023-04-16T13:46:23;16.13;;;14.43;;
1591;SDS011;789;51.612;7.510;2023-04-16T13:48:51;17.00;;;15.30;;
1591;SDS011;789;51.612;7.510;2023-04-16T13:51:19;16.77;;;15.07;;
1591;SDS011;789;51.612;7.510;2023-04-16T13:53:46;17.13;;;15.33;;
1591;SDS011;789;51.612;7.510;2023-04-16T13:56:13;16.87;;;15.07;;
1591;SDS011;789;51.612;7.510;2023-04-16T13:58:40;17.63;;;15.73;;
1591;SDS011;789;51.612;7.510;2023-04-16T14:01:09;17.60;;;16.00;;
1591;SDS011;789;51.612;7.510;2023-04-16T14:03:36;18.87;;;17.00;;
1591;SDS011;789;51.612;7.510;2023-04-16T14:06:04;17.67;;;16.07;;
1591;SDS011;789;51.612;7.510;2023-04-16T14:08:31;18.87;;;17.03;;
1591;SDS011;789;51.612;7.510;2023-04-16T14:10:58;19.30;;;17.47;;
1591;SDS011;789;51.612;7.510;2023-04-16T14:13:29;18.53;;;16.67;;
1591;SDS011;789;51.612;7.510;2023-04-16T14:15:55;21.93;;;16.30;;
1591;SDS011;789;51.612;7.510;2023-04-16T14:18:24;17.93;;;16.23;;
1591;SDS011;789;51.612;7.510;2023-04-16T14:20:50;19.00;;;17.13;;
1591;SDS011;789;51.612;7.510;2023-04-16T14:23:17;19.67;;;17.67;;
1591;SDS011;789;51.612;7.510;2023-04-16T14:25:44;21.10;;;19.00;;
1591;SDS011;789;51.612;7.510;2023-04-16T14:28:11;20.03;;;17.93;;
1591;SDS011;789;51.612;7.510;2023-04-16T14:30:38;20.00;;;17.83;;
1591;SDS011;789;51.612;7.510;2023-04-16T14:33:04;19.50;;;17.60;;
1591;SDS011;789;51.612;7.510;2023-04-16T14:35:32;20.13;;;17.50;;
1591;SDS011;789;51.612;7.510;2023-04-16T14:37:59;24.00;;;21.57;;
1591;SDS011;789;51.612;7.510;2023-04-16T14:40:27;20.33;;;18.43;;
1591;SDS011;789;51.612;7.510;2023-04-16T14:42:53;20.93;;;18.80;;
1591;SDS011;789;51.612;7.510;2023-04-16T14:45:21;19.90;;;17.27;;
1591;SDS011;789;51.612;7.510;2023-04-16T14:47:50;20.40;;;18.27;;
1591;SDS011;789;51.612;7.510;2023-04-16T14:50:17;19.20;;;17.17;;
1591;SDS011;789;51.612;7.510;2023-04-16T14:52:49;19.30;;;17.30;;
1591;SDS011;789;51.612;7.510;2023-04-16T14:55:18;19.17;;;17.27;;
1591;SDS011;789;51.612;7.510;2023-04-16T14:57:45;19.77;;;17.90;;
1591;SDS011;789;51.612;7.510;2023-04-16T15:00:13;19.90;;;17.20;;
1591;SDS011;789;51.612;7.510;2023-04-16T15:02:42;19.20;;;17.30;;
1591;SDS011;789;51.612;7.510;2023-04-16T15:05:11;19.97;;;17.77;;
1591;SDS011;789;51.612;7.510;2023-04-16T15:07:37;20.07;;;18.17;;